KBIL/BIL METAR and TAF weather

Enter ICAO airport designator
Station Type Date Time Source
KBIL METAR 2024/05/28 21:53 UTC NOAA

KBIL 282153Z VRB04KT 10SM CLR 26/06 A3003 RMK AO2 SLP147 T02610056


Station Type Date Time Source
KBIL Decoded METAR 2024/05/28 21:53 UTC NOAA

LOGAN INTERNATIONAL AIRPORT, MT, United States (KBIL) 45-49N 108-33W 1091M
May 28, 2024 - 05:53 PM EDT / 2024.05.28 2153 UTC
Wind: Variable at 5 MPH (4 KT):0
Visibility: 10 mile(s):0
Sky conditions: clear
Temperature: 79.0 F (26.1 C)
Dew Point: 42.1 F (5.6 C)
Relative Humidity: 26%
Pressure (altimeter): 30.03 in. Hg (1016 hPa)
ob: KBIL 282153Z VRB04KT 10SM CLR 26/06 A3003 RMK AO2 SLP147 T02610056
cycle: 22

Station Type Date Time Source
KBIL TAF 2024/05/28 18:22 UTC NOAA